createdAt,value
2018-04-11T00:00:21.862Z,73.20
2018-04-11T00:02:23.283Z,73.39
2018-04-11T00:04:24.763Z,73.20
2018-04-11T00:06:26.230Z,73.30
2018-04-11T00:08:27.694Z,73.55
2018-04-11T00:10:29.127Z,73.65
2018-04-11T00:12:30.564Z,73.93
2018-04-11T00:14:32.014Z,73.93
2018-04-11T00:16:33.608Z,74.31
2018-04-11T00:18:35.031Z,73.26
2018-04-11T00:20:36.456Z,73.26
2018-04-11T00:22:37.897Z,73.26
2018-04-11T00:24:39.329Z,73.65
2018-04-11T00:26:40.757Z,73.93
2018-04-11T00:28:42.187Z,73.93
2018-04-11T00:30:43.606Z,73.83
2018-04-11T00:32:45.097Z,73.22
2018-04-11T00:34:46.498Z,73.26
2018-04-11T00:36:47.917Z,72.84
2018-04-11T00:38:49.343Z,72.94
2018-04-11T00:40:50.763Z,73.51
2018-04-11T00:42:52.177Z,72.84
2018-04-11T00:44:53.601Z,72.27
2018-04-11T00:46:55.025Z,72.07
2018-04-11T00:48:56.457Z,72.84
2018-04-11T00:50:57.875Z,72.94
2018-04-11T00:52:59.296Z,72.07
2018-04-11T00:55:00.718Z,72.17
2018-04-11T00:57:02.140Z,72.27
2018-04-11T00:59:03.561Z,72.07
2018-04-11T01:01:04.984Z,71.88
2018-04-11T01:03:06.405Z,71.98
2018-04-11T01:05:07.830Z,71.98
2018-04-11T01:07:09.258Z,71.98
2018-04-11T01:09:10.676Z,71.69
2018-04-11T01:11:12.095Z,71.59
2018-04-11T01:13:13.515Z,71.27
2018-04-11T01:15:15.027Z,71.56
2018-04-11T01:17:16.519Z,71.59
2018-04-11T01:19:17.976Z,71.59
2018-04-11T01:21:19.465Z,70.79
2018-04-11T01:23:20.962Z,71.08
2018-04-11T01:25:22.438Z,71.46
2018-04-11T01:27:23.859Z,71.27
2018-04-11T01:29:25.296Z,71.56
2018-04-11T01:31:26.804Z,71.27
2018-04-11T01:33:28.255Z,72.03
2018-04-11T01:35:29.669Z,72.52
2018-04-11T01:37:31.164Z,72.52
2018-04-11T01:39:32.613Z,72.52
2018-04-11T01:41:34.030Z,72.80
2018-04-11T01:43:35.451Z,72.03
2018-04-11T01:45:36.911Z,72.23
2018-04-11T01:47:38.805Z,72.48
2018-04-11T01:49:42.131Z,72.03
2018-04-11T01:51:43.591Z,72.48
2018-04-11T01:53:45.114Z,72.29
2018-04-11T01:55:46.565Z,71.94
2018-04-11T01:57:47.996Z,72.00
2018-04-11T01:59:49.439Z,72.48
2018-04-11T02:01:50.955Z,72.19
2018-04-11T02:03:52.468Z,71.81
2018-04-11T02:05:53.976Z,71.52
2018-04-11T02:07:55.415Z,71.23
2018-04-11T02:09:56.847Z,71.62
2018-04-11T02:11:58.320Z,72.29
2018-04-11T02:13:59.833Z,72.92
2018-04-11T02:16:01.254Z,73.30
2018-04-11T02:18:02.675Z,73.02
2018-04-11T02:20:04.093Z,72.73
2018-04-11T02:22:05.517Z,73.30
2018-04-11T02:24:06.941Z,73.30
2018-04-11T02:26:08.357Z,73.69
2018-04-11T02:28:09.784Z,73.59
2018-04-11T02:30:11.563Z,73.02
2018-04-11T02:32:13.125Z,72.83
2018-04-11T02:34:14.613Z,73.02
2018-04-11T02:36:16.144Z,73.02
2018-04-11T02:38:17.726Z,72.92
2018-04-11T02:40:19.411Z,72.83
2018-04-11T02:42:21.652Z,73.27
2018-04-11T02:44:23.940Z,73.17
2018-04-11T02:46:25.619Z,73.27
2018-04-11T02:48:27.145Z,73.08
2018-04-11T02:50:28.572Z,73.75
2018-04-11T02:52:29.999Z,73.36
2018-04-11T02:54:31.489Z,73.46
2018-04-11T02:56:33.462Z,73.27
2018-04-11T02:58:35.824Z,72.69
2018-04-11T03:00:37.519Z,72.79
2018-04-11T03:02:38.950Z,73.46
2018-04-11T03:04:40.386Z,72.88
2018-04-11T03:06:41.892Z,73.08
2018-04-11T03:08:43.359Z,72.79
2018-04-11T03:10:44.832Z,73.08
2018-04-11T03:12:46.308Z,73.04
2018-04-11T03:14:47.757Z,73.04
2018-04-11T03:16:49.987Z,72.94
2018-04-11T03:18:51.512Z,72.94
2018-04-11T03:20:53.046Z,72.31
2018-04-11T03:22:54.499Z,72.12
2018-04-11T03:24:55.930Z,72.28
2018-04-11T03:26:57.509Z,72.85
2018-04-11T03:28:58.998Z,72.85
2018-04-11T03:31:00.498Z,73.04
2018-04-11T03:33:02.005Z,72.66
2018-04-11T03:35:03.480Z,73.43
2018-04-11T03:37:04.937Z,72.75
2018-04-11T03:39:06.425Z,72.94
2018-04-11T03:41:07.880Z,72.85
2018-04-11T03:43:09.337Z,72.85
2018-04-11T03:45:10.781Z,72.66
2018-04-11T03:47:12.335Z,73.43
2018-04-11T03:49:13.770Z,72.85
2018-04-11T03:51:15.211Z,72.75
2018-04-11T03:53:16.669Z,73.23
2018-04-11T03:55:18.126Z,73.71
2018-04-11T03:57:19.559Z,73.80
2018-04-11T03:59:21.064Z,73.58
2018-04-11T04:01:22.533Z,73.00
2018-04-11T04:03:24.045Z,73.58
2018-04-11T04:05:25.499Z,73.96
2018-04-11T04:07:26.988Z,74.05
2018-04-11T04:09:28.442Z,73.58
2018-04-11T04:11:29.867Z,73.96
2018-04-11T04:13:31.311Z,74.15
2018-04-11T04:15:32.792Z,74.05
2018-04-11T04:17:34.267Z,74.15
2018-04-11T04:19:35.744Z,73.77
2018-04-11T04:21:37.193Z,74.24
2018-04-11T04:23:38.646Z,74.15
2018-04-11T04:25:40.097Z,74.34
2018-04-11T04:27:41.530Z,74.05
2018-04-11T04:29:42.957Z,73.96
2018-04-11T04:31:44.377Z,73.77
2018-04-11T04:33:45.873Z,73.29
2018-04-11T04:35:47.295Z,73.39
2018-04-11T04:38:29.222Z,73.19
2018-04-11T04:40:30.655Z,73.58
2018-04-11T04:42:32.203Z,73.19
2018-04-11T04:44:33.787Z,74.05
2018-04-11T04:46:35.216Z,74.05
2018-04-11T04:48:36.664Z,74.24
2018-04-11T04:50:38.160Z,74.02
2018-04-11T04:52:39.685Z,74.11
2018-04-11T04:54:41.156Z,74.21
2018-04-11T04:56:42.582Z,74.11
2018-04-11T04:58:44.001Z,74.02
2018-04-11T05:00:45.417Z,73.54
2018-04-11T05:02:46.840Z,73.73
2018-04-11T05:04:48.264Z,74.40
2018-04-11T05:06:49.686Z,74.30
2018-04-11T05:08:51.113Z,74.11
2018-04-11T05:10:52.532Z,74.02
2018-04-11T05:12:53.945Z,74.69
2018-04-11T05:14:55.368Z,74.59
2018-04-11T05:16:56.809Z,74.49
2018-04-11T05:18:58.229Z,74.69
2018-04-11T05:20:59.651Z,74.78
2018-04-11T05:23:01.069Z,75.16
2018-04-11T05:25:02.487Z,74.88
2018-04-11T05:27:03.906Z,74.69
2018-04-11T05:29:05.326Z,75.26
2018-04-11T05:31:06.796Z,75.26
2018-04-11T05:33:08.209Z,75.16
2018-04-11T05:35:09.638Z,74.59
2018-04-11T05:37:11.059Z,74.21
2018-04-11T05:39:12.483Z,74.34
2018-04-11T05:41:13.908Z,73.77
2018-04-11T05:43:15.326Z,73.96
2018-04-11T05:45:16.763Z,74.24
2018-04-11T05:47:18.187Z,74.24
2018-04-11T05:49:19.604Z,74.02
2018-04-11T05:51:21.030Z,74.21
2018-04-11T05:53:22.486Z,74.34
2018-04-11T05:55:23.872Z,74.40
2018-04-11T05:57:25.294Z,74.05
2018-04-11T05:59:26.726Z,73.96
2018-04-11T06:01:28.181Z,73.58
2018-04-11T06:03:29.592Z,73.77
2018-04-11T06:05:31.013Z,74.15
2018-04-11T06:07:32.433Z,74.53
2018-04-11T06:09:33.860Z,74.15
2018-04-11T06:11:35.293Z,73.00
2018-04-11T06:13:36.712Z,73.77
2018-04-11T06:15:38.133Z,73.14
2018-04-11T06:17:39.583Z,72.47
2018-04-11T06:19:41.007Z,71.89
2018-04-11T06:21:42.432Z,71.89
2018-04-11T06:23:43.852Z,71.51
2018-04-11T06:25:45.280Z,72.28
2018-04-11T06:27:46.702Z,71.13
2018-04-11T06:29:48.132Z,71.26
2018-04-11T06:31:49.573Z,70.97
2018-04-11T06:33:50.997Z,70.34
2018-04-11T06:35:52.420Z,69.51
2018-04-11T06:37:53.843Z,68.07
2018-04-11T06:39:55.343Z,66.67
2018-04-11T06:41:56.770Z,65.05
2018-04-11T06:43:58.197Z,64.89
2018-04-11T06:45:59.621Z,63.86
2018-04-11T06:48:01.046Z,62.65
2018-04-11T06:50:02.471Z,61.49
2018-04-11T06:52:03.892Z,60.53
2018-04-11T06:54:05.324Z,59.61
2018-04-11T06:56:06.751Z,59.03
2018-04-11T06:58:08.269Z,57.62
2018-04-11T07:00:09.700Z,56.95
2018-04-11T07:02:11.126Z,57.40
2018-04-11T07:04:12.557Z,57.52
2018-04-11T07:06:13.987Z,55.82
2018-04-11T07:08:15.419Z,54.89
2018-04-11T07:10:16.865Z,54.02
2018-04-11T07:12:18.296Z,53.57
2018-04-11T07:14:19.729Z,52.89
2018-04-11T07:16:21.158Z,52.92
2018-04-11T07:18:22.590Z,52.15
2018-04-11T07:20:24.021Z,51.67
2018-04-11T07:22:25.457Z,51.48
2018-04-11T07:24:26.885Z,50.81
2018-04-11T07:26:28.317Z,50.63
2018-04-11T07:28:29.748Z,50.15
2018-04-11T07:30:31.190Z,50.90
2018-04-11T07:32:32.618Z,53.02
2018-04-11T07:34:34.057Z,51.21
2018-04-11T07:36:35.489Z,48.95
2018-04-11T07:38:36.920Z,49.63
2018-04-11T07:40:38.351Z,49.48
2018-04-11T07:42:39.792Z,52.15
2018-04-11T07:44:41.226Z,50.99
2018-04-11T07:46:42.657Z,51.57
2018-04-11T07:48:44.108Z,51.57
2018-04-11T07:50:45.528Z,52.18
2018-04-11T07:52:46.958Z,50.57
2018-04-11T07:54:48.414Z,50.09
2018-04-11T07:56:50.084Z,49.51
2018-04-11T07:58:51.516Z,49.89
2018-04-11T08:00:52.950Z,48.74
2018-04-11T08:02:54.383Z,50.63
2018-04-11T08:04:55.812Z,51.29
2018-04-11T08:06:57.263Z,52.15
2018-04-11T08:08:58.673Z,53.76
2018-04-11T08:11:00.105Z,54.43
2018-04-11T08:13:01.540Z,54.99
2018-04-11T08:15:02.974Z,55.46
2018-04-11T08:17:04.403Z,55.85
2018-04-11T08:19:05.829Z,56.04
2018-04-11T08:21:07.266Z,56.01
2018-04-11T08:23:08.696Z,55.53
2018-04-11T08:25:10.126Z,57.26
2018-04-11T08:27:11.566Z,57.23
2018-04-11T08:29:12.986Z,57.04
2018-04-11T08:31:14.444Z,57.90
2018-04-11T08:33:15.926Z,57.23
2018-04-11T08:35:17.443Z,57.04
2018-04-11T08:37:18.878Z,58.61
2018-04-11T08:39:20.311Z,59.09
2018-04-11T08:41:21.736Z,57.17
2018-04-11T08:43:23.172Z,56.68
2018-04-11T08:45:24.599Z,56.62
2018-04-11T08:47:26.081Z,56.33
2018-04-11T08:49:27.463Z,56.43
2018-04-11T08:51:28.896Z,55.27
2018-04-11T08:53:30.323Z,54.99
2018-04-11T08:55:31.754Z,55.18
2018-04-11T08:57:33.195Z,55.78
2018-04-11T08:59:34.627Z,55.30
2018-04-11T09:01:36.066Z,54.72
2018-04-11T09:03:37.498Z,55.20
2018-04-11T09:05:38.932Z,56.10
2018-04-11T09:07:40.373Z,55.71
2018-04-11T09:09:41.795Z,53.78
2018-04-11T09:11:43.229Z,54.36
2018-04-11T09:13:44.658Z,54.46
2018-04-11T09:15:46.093Z,54.75
2018-04-11T09:17:47.532Z,53.50
2018-04-11T09:19:48.966Z,54.49
2018-04-11T09:21:50.400Z,53.72
2018-04-11T09:23:51.831Z,53.33
2018-04-11T09:25:53.265Z,53.53
2018-04-11T09:27:54.700Z,54.71
2018-04-11T09:29:56.138Z,52.40
2018-04-11T09:31:57.632Z,52.11
2018-04-11T09:33:59.007Z,51.43
2018-04-11T09:36:00.439Z,51.53
2018-04-11T09:38:01.876Z,53.58
2018-04-11T09:40:03.303Z,51.75
2018-04-11T09:42:04.731Z,53.48
2018-04-11T09:44:06.113Z,52.83
2018-04-11T09:46:07.547Z,51.75
2018-04-11T09:48:08.994Z,50.52
2018-04-11T09:50:10.426Z,51.29
2018-04-11T09:52:11.951Z,50.21
2018-04-11T09:54:13.456Z,50.59
2018-04-11T09:56:15.193Z,50.40
2018-04-11T09:58:16.669Z,51.07
2018-04-11T10:00:18.157Z,52.20
2018-04-11T10:02:19.669Z,52.33
2018-04-11T10:04:21.168Z,51.36
2018-04-11T10:06:22.613Z,52.11
2018-04-11T10:08:24.069Z,51.34
2018-04-11T10:10:25.514Z,51.26
2018-04-11T10:12:26.948Z,52.13
2018-04-11T10:14:28.393Z,53.80
2018-04-11T10:16:29.833Z,51.39
2018-04-11T10:18:31.268Z,50.71
2018-04-11T10:20:32.705Z,49.58
2018-04-11T10:22:34.140Z,48.97
2018-04-11T10:24:35.574Z,49.65
2018-04-11T10:26:37.007Z,49.46
2018-04-11T10:28:38.446Z,51.68
2018-04-11T10:30:39.876Z,50.52
2018-04-11T10:32:41.312Z,50.13
2018-04-11T10:34:42.748Z,49.46
2018-04-11T10:36:44.182Z,49.55
2018-04-11T10:39:26.726Z,49.27
2018-04-11T10:41:28.134Z,51.36
2018-04-11T10:43:29.568Z,51.26
2018-04-11T10:45:31.000Z,51.84
2018-04-11T10:47:32.432Z,50.57
2018-04-11T10:49:33.864Z,51.94
2018-04-11T10:51:35.300Z,50.49
2018-04-11T10:53:36.732Z,51.65
2018-04-11T10:55:38.164Z,52.23
2018-04-11T10:57:39.596Z,53.48
2018-04-11T10:59:41.028Z,53.39
2018-04-11T11:01:42.459Z,52.16
2018-04-11T11:03:43.896Z,50.90
2018-04-11T11:05:45.334Z,52.86
2018-04-11T11:07:47.014Z,48.71
2018-04-11T11:09:49.052Z,48.30
2018-04-11T11:11:51.124Z,50.71
2018-04-11T11:13:52.685Z,50.52
2018-04-11T11:15:54.138Z,51.58
2018-04-11T11:17:55.571Z,51.20
2018-04-11T11:19:57.504Z,52.93
2018-04-11T11:21:58.952Z,52.95
2018-04-11T11:24:00.398Z,51.41
2018-04-11T11:26:01.836Z,50.45
2018-04-11T11:28:03.268Z,50.06
2018-04-11T11:30:04.697Z,52.09
2018-04-11T11:32:06.128Z,49.39
2018-04-11T11:34:07.569Z,50.67
2018-04-11T11:36:09.001Z,50.40
2018-04-11T11:38:10.431Z,50.23
2018-04-11T11:40:12.437Z,48.88
2018-04-11T11:42:14.034Z,48.08
2018-04-11T11:44:15.533Z,48.95
2018-04-11T11:46:16.963Z,49.12
2018-04-11T11:48:18.516Z,49.12
2018-04-11T11:50:20.167Z,50.31
2018-04-11T11:52:21.666Z,50.40
2018-04-11T11:54:23.153Z,48.54
2018-04-11T11:56:24.592Z,49.12
2018-04-11T11:58:26.032Z,49.60
2018-04-11T12:00:27.468Z,50.47
2018-04-11T12:02:28.904Z,50.86
2018-04-11T12:04:30.343Z,50.50
2018-04-11T12:06:31.908Z,49.53
2018-04-11T12:08:33.317Z,50.13
2018-04-11T12:10:34.757Z,48.21
2018-04-11T12:12:36.189Z,46.92
2018-04-11T12:14:37.624Z,49.17
2018-04-11T12:16:39.065Z,49.85
2018-04-11T12:18:40.492Z,48.39
2018-04-11T12:20:41.943Z,48.39
2018-04-11T12:22:43.368Z,49.27
2018-04-11T12:24:44.805Z,47.91
2018-04-11T12:26:46.244Z,47.53
2018-04-11T12:28:47.678Z,48.47
2018-04-11T12:30:49.115Z,48.35
2018-04-11T12:32:50.557Z,49.70
2018-04-11T12:34:52.040Z,49.70
2018-04-11T12:36:53.515Z,49.58
2018-04-11T12:38:55.028Z,50.04
2018-04-11T12:40:56.459Z,51.48
2018-04-11T12:42:57.893Z,51.58
2018-04-11T12:44:59.404Z,52.64
2018-04-11T12:47:01.603Z,52.42
2018-04-11T12:49:03.002Z,52.81
2018-04-11T12:51:04.433Z,53.29
2018-04-11T12:53:05.968Z,53.55
2018-04-11T12:55:07.400Z,53.48
2018-04-11T12:57:08.826Z,53.27
2018-04-11T12:59:10.261Z,53.45
2018-04-11T13:01:11.947Z,54.61
2018-04-11T13:03:13.583Z,53.84
2018-04-11T13:05:15.090Z,54.52
2018-04-11T13:07:16.619Z,54.03
2018-04-11T13:09:18.089Z,54.32
2018-04-11T13:11:19.563Z,54.64
2018-04-11T13:13:21.004Z,53.77
2018-04-11T13:15:22.442Z,53.96
2018-04-11T13:17:23.875Z,53.67
2018-04-11T13:19:25.337Z,53.09
2018-04-11T13:21:26.758Z,53.77
2018-04-11T13:23:28.234Z,53.87
2018-04-11T13:25:29.654Z,53.67
2018-04-11T13:27:31.276Z,54.35
2018-04-11T13:29:33.049Z,53.67
2018-04-11T13:31:34.530Z,55.12
2018-04-11T13:33:35.995Z,54.64
2018-04-11T13:35:37.430Z,53.29
2018-04-11T13:37:39.032Z,53.09
2018-04-11T13:39:40.722Z,53.09
2018-04-11T13:41:42.517Z,52.91
2018-04-11T13:43:43.994Z,53.77
2018-04-11T13:45:45.474Z,53.00
2018-04-11T13:47:47.080Z,53.29
2018-04-11T13:49:48.770Z,53.77
2018-04-11T13:51:50.279Z,53.39
2018-04-11T13:53:51.746Z,53.39
2018-04-11T13:55:53.209Z,53.48
2018-04-11T13:57:54.724Z,53.77
2018-04-11T13:59:56.222Z,52.91
2018-04-11T14:01:57.955Z,53.67
2018-04-11T14:03:59.440Z,53.94
2018-04-11T14:06:00.923Z,54.61
2018-04-11T14:08:02.693Z,54.42
2018-04-11T14:10:04.205Z,54.64
2018-04-11T14:12:05.637Z,54.22
2018-04-11T14:14:07.065Z,55.09
2018-04-11T14:16:08.495Z,54.90
2018-04-11T14:18:10.354Z,55.19
2018-04-11T14:20:12.243Z,55.48
2018-04-11T14:22:13.704Z,55.19
2018-04-11T14:24:15.136Z,54.90
2018-04-11T14:26:16.568Z,55.38
2018-04-11T14:28:18.313Z,55.29
2018-04-11T14:30:19.944Z,54.71
2018-04-11T14:32:21.645Z,54.71
2018-04-11T14:34:23.401Z,54.90
2018-04-11T14:36:25.163Z,55.57
2018-04-11T14:38:26.919Z,55.48
2018-04-11T14:40:28.436Z,55.96
2018-04-11T14:42:29.898Z,55.29
2018-04-11T14:44:31.620Z,55.60
2018-04-11T14:46:33.278Z,55.22
2018-04-11T14:48:35.312Z,55.79
2018-04-11T14:50:37.433Z,55.70
2018-04-11T14:52:38.978Z,55.12
2018-04-11T14:54:40.439Z,55.79
2018-04-11T14:56:41.933Z,55.22
2018-04-11T14:58:43.402Z,55.51
2018-04-11T15:00:44.842Z,54.54
2018-04-11T15:02:47.172Z,55.00
2018-04-11T15:04:48.551Z,55.48
2018-04-11T15:06:50.032Z,55.57
2018-04-11T15:08:51.419Z,55.87
2018-04-11T15:10:53.777Z,56.25
2018-04-11T15:12:55.235Z,57.76
2018-04-11T15:14:56.725Z,59.11
2018-04-11T15:16:58.980Z,59.01
2018-04-11T15:19:01.183Z,58.65
2018-04-11T15:21:02.669Z,58.65
2018-04-11T15:23:04.142Z,58.44
2018-04-11T15:25:05.670Z,58.63
2018-04-11T15:27:07.100Z,58.72
2018-04-11T15:29:08.598Z,58.72
2018-04-11T15:31:10.031Z,58.82
2018-04-11T15:33:13.509Z,59.20
2018-04-11T15:35:14.960Z,59.88
2018-04-11T15:37:16.451Z,59.37
2018-04-11T15:39:17.985Z,60.33
2018-04-11T15:41:19.437Z,59.94
2018-04-11T15:43:20.882Z,59.75
2018-04-11T15:45:23.038Z,59.88
2018-04-11T15:47:25.084Z,60.36
2018-04-11T15:49:27.324Z,59.20
2018-04-11T15:51:28.832Z,59.78
2018-04-11T15:53:30.271Z,59.78
2018-04-11T15:55:31.701Z,59.97
2018-04-11T15:57:33.131Z,60.55
2018-04-11T15:59:34.563Z,60.36
2018-04-11T16:01:35.999Z,59.20
2018-04-11T16:03:37.417Z,59.49
2018-04-11T16:05:39.561Z,60.33
2018-04-11T16:07:41.021Z,60.36
2018-04-11T16:09:42.451Z,61.04
2018-04-11T16:11:43.884Z,60.81
2018-04-11T16:13:48.801Z,61.49
2018-04-11T16:15:51.032Z,61.39
2018-04-11T16:17:53.225Z,61.84
2018-04-11T16:19:54.886Z,62.03
2018-04-11T16:21:56.830Z,62.51
2018-04-11T16:23:58.446Z,62.23
2018-04-11T16:25:59.911Z,63.28
2018-04-11T16:28:01.347Z,63.09
2018-04-11T16:30:03.258Z,62.61
2018-04-11T16:32:05.445Z,62.61
2018-04-11T16:34:07.744Z,62.35
2018-04-11T16:36:09.314Z,62.51
2018-04-11T16:38:51.732Z,62.61
2018-04-11T16:40:53.165Z,62.41
2018-04-11T16:42:54.638Z,63.09
2018-04-11T16:44:56.072Z,62.80
2018-04-11T16:46:58.391Z,63.35
2018-04-11T16:48:59.796Z,63.83
2018-04-11T16:51:01.952Z,63.45
2018-04-11T16:53:03.561Z,63.83
2018-04-11T16:55:05.010Z,64.22
2018-04-11T16:57:06.458Z,64.31
2018-04-11T16:59:07.897Z,64.31
2018-04-11T17:01:09.386Z,64.22
2018-04-11T17:03:11.710Z,64.40
2018-04-11T17:05:13.200Z,64.31
2018-04-11T17:07:14.691Z,64.40
2018-04-11T17:09:16.133Z,64.22
2018-04-11T17:11:18.260Z,64.40
2018-04-11T17:13:19.689Z,64.12
2018-04-11T17:15:21.806Z,64.31
2018-04-11T17:17:23.860Z,64.22
2018-04-11T17:19:25.302Z,64.69
2018-04-11T17:21:26.808Z,64.50
2018-04-11T17:23:28.245Z,64.12
2018-04-11T17:25:30.403Z,64.66
2018-04-11T17:27:31.782Z,65.05
2018-04-11T17:29:33.223Z,65.23
2018-04-11T17:31:34.650Z,65.33
2018-04-11T17:33:36.089Z,65.88
2018-04-11T17:35:37.503Z,66.84
2018-04-11T17:37:38.938Z,67.32
2018-04-11T17:39:40.358Z,67.03
2018-04-11T17:41:42.400Z,67.41
2018-04-11T17:43:43.820Z,66.93
2018-04-11T17:45:45.246Z,67.03
2018-04-11T17:47:46.672Z,67.32
2018-04-11T17:49:48.648Z,67.51
2018-04-11T17:51:50.568Z,67.13
2018-04-11T17:53:52.616Z,66.55
2018-04-11T17:55:54.065Z,66.64
2018-04-11T17:57:56.149Z,66.74
2018-04-11T17:59:57.671Z,66.64
2018-04-11T18:01:59.116Z,66.55
2018-04-11T18:04:01.416Z,66.64
2018-04-11T18:06:03.375Z,67.03
2018-04-11T18:08:04.918Z,67.13
2018-04-11T18:10:06.388Z,67.51
2018-04-11T18:12:07.848Z,67.32
2018-04-11T18:14:09.325Z,67.32
2018-04-11T18:16:11.343Z,68.18
2018-04-11T18:18:12.851Z,68.37
2018-04-11T18:20:14.902Z,68.34
2018-04-11T18:22:16.408Z,68.24
2018-04-11T18:24:17.883Z,67.86
2018-04-11T18:26:19.343Z,68.34
2018-04-11T18:28:20.776Z,68.15
2018-04-11T18:30:22.244Z,67.86
2018-04-11T18:32:23.716Z,67.76
2018-04-11T18:34:25.933Z,68.05
2018-04-11T18:36:27.603Z,67.96
2018-04-11T18:38:29.073Z,68.05
2018-04-11T18:40:31.168Z,67.67
2018-04-11T18:42:32.770Z,67.76
2018-04-11T18:44:34.383Z,68.34
2018-04-11T18:46:36.282Z,68.63
2018-04-11T18:48:37.896Z,68.34
2018-04-11T18:50:39.583Z,68.44
2018-04-11T18:52:41.321Z,68.05
2018-04-11T18:54:43.137Z,67.96
2018-04-11T18:56:44.887Z,68.24
2018-04-11T18:58:46.755Z,68.15
2018-04-11T19:00:48.550Z,68.34
2018-04-11T19:02:50.056Z,68.63
2018-04-11T19:04:51.525Z,68.73
2018-04-11T19:06:53.331Z,68.82
2018-04-11T19:08:55.093Z,69.11
2018-04-11T19:10:56.799Z,69.20
2018-04-11T19:12:58.597Z,69.17
2018-04-11T19:15:00.085Z,69.46
2018-04-11T19:17:01.624Z,69.07
2018-04-11T19:19:03.259Z,70.13
2018-04-11T19:21:04.797Z,69.84
2018-04-11T19:23:06.385Z,70.13
2018-04-11T19:25:07.855Z,70.99
2018-04-11T19:27:09.516Z,70.23
2018-04-11T19:29:11.067Z,70.32
2018-04-11T19:31:12.736Z,70.38
2018-04-11T19:33:14.791Z,71.15
2018-04-11T19:35:16.959Z,70.57
2018-04-11T19:37:18.626Z,70.48
2018-04-11T19:39:20.378Z,71.34
2018-04-11T19:41:22.046Z,71.44
2018-04-11T19:43:23.797Z,71.15
2018-04-11T19:45:25.525Z,70.86
2018-04-11T19:47:27.270Z,71.25
2018-04-11T19:49:29.440Z,71.25
2018-04-11T19:51:31.019Z,70.76
2018-04-11T19:53:32.525Z,70.86
2018-04-11T19:55:34.306Z,71.25
2018-04-11T19:57:35.884Z,71.72
2018-04-11T19:59:37.790Z,71.72
2018-04-11T20:01:39.247Z,72.20
2018-04-11T20:03:40.718Z,72.30
2018-04-11T20:05:42.370Z,72.78
2018-04-11T20:07:43.863Z,72.30
2018-04-11T20:09:45.455Z,72.39
2018-04-11T20:11:48.882Z,72.20
2018-04-11T20:13:50.713Z,73.41
2018-04-11T20:15:52.470Z,73.61
2018-04-11T20:17:54.420Z,73.41
2018-04-11T20:19:56.154Z,73.13
2018-04-11T20:21:58.431Z,73.51
2018-04-11T20:24:00.675Z,73.41
2018-04-11T20:26:02.286Z,73.22
2018-04-11T20:28:03.974Z,73.41
2018-04-11T20:30:05.452Z,73.13
2018-04-11T20:32:07.137Z,73.03
2018-04-11T20:34:08.861Z,73.41
2018-04-11T20:36:10.951Z,73.22
2018-04-11T20:38:12.618Z,73.03
2018-04-11T20:40:14.397Z,73.22
2018-04-11T20:42:16.061Z,73.41
2018-04-11T20:44:18.579Z,73.03
2018-04-11T20:46:20.192Z,73.51
2018-04-11T20:48:21.661Z,73.41
2018-04-11T20:50:23.590Z,73.41
2018-04-11T20:52:25.820Z,73.03
2018-04-11T20:54:27.394Z,73.41
2018-04-11T20:56:29.034Z,73.22
2018-04-11T20:58:31.142Z,73.32
2018-04-11T21:00:32.621Z,73.13
2018-04-11T21:02:34.095Z,73.51
2018-04-11T21:04:35.582Z,73.13
2018-04-11T21:06:37.144Z,73.95
2018-04-11T21:08:38.626Z,74.24
2018-04-11T21:10:40.108Z,74.15
2018-04-11T21:12:41.581Z,74.05
2018-04-11T21:14:43.146Z,74.62
2018-04-11T21:16:45.269Z,74.91
2018-04-11T21:18:46.898Z,74.05
2018-04-11T21:20:48.627Z,74.62
2018-04-11T21:22:50.241Z,74.52
2018-04-11T21:24:51.709Z,74.72
2018-04-11T21:26:53.239Z,74.82
2018-04-11T21:28:54.727Z,75.29
2018-04-11T21:30:56.189Z,75.20
2018-04-11T21:32:57.668Z,75.01
2018-04-11T21:34:59.556Z,75.10
2018-04-11T21:37:01.684Z,75.29
2018-04-11T21:39:03.120Z,74.72
2018-04-11T21:41:04.604Z,75.29
2018-04-11T21:43:06.350Z,75.20
2018-04-11T21:45:07.984Z,75.29
2018-04-11T21:47:09.573Z,74.72
2018-04-11T21:49:11.074Z,74.82
2018-04-11T21:51:12.594Z,74.82
2018-04-11T21:53:14.152Z,74.33
2018-04-11T21:55:15.766Z,74.05
2018-04-11T21:57:17.518Z,74.05
2018-04-11T21:59:19.800Z,74.05
2018-04-11T22:01:22.167Z,74.24
2018-04-11T22:03:23.825Z,74.20
2018-04-11T22:05:26.051Z,74.11
2018-04-11T22:07:28.271Z,74.11
2018-04-11T22:09:29.947Z,74.11
2018-04-11T22:11:31.401Z,74.11
2018-04-11T22:13:33.448Z,74.30
2018-04-11T22:15:35.047Z,74.30
2018-04-11T22:17:36.667Z,74.01
2018-04-11T22:19:38.894Z,73.91
2018-04-11T22:21:40.564Z,74.20
2018-04-11T22:23:42.041Z,74.20
2018-04-11T22:25:43.631Z,74.20
2018-04-11T22:27:45.087Z,74.16
2018-04-11T22:29:46.511Z,74.26
2018-04-11T22:31:47.979Z,74.36
2018-04-11T22:33:49.428Z,74.36
2018-04-11T22:35:50.877Z,74.74
2018-04-11T22:37:52.649Z,74.26
2018-04-11T22:39:54.225Z,74.07
2018-04-11T22:41:55.874Z,74.26
2018-04-11T22:43:57.570Z,74.84
2018-04-11T22:45:59.034Z,74.55
2018-04-11T22:48:00.545Z,74.55
2018-04-11T22:50:02.009Z,74.55
2018-04-11T22:52:04.444Z,74.45
2018-04-11T22:54:06.674Z,74.55
2018-04-11T22:56:09.064Z,74.51
2018-04-11T22:58:10.615Z,74.65
2018-04-11T23:00:12.190Z,74.55
2018-04-11T23:02:13.895Z,74.65
2018-04-11T23:04:15.405Z,74.70
2018-04-11T23:06:16.873Z,74.51
2018-04-11T23:08:18.543Z,74.61
2018-04-11T23:10:20.180Z,74.32
2018-04-11T23:12:21.641Z,74.41
2018-04-11T23:14:23.152Z,75.18
2018-04-11T23:16:24.629Z,75.09
2018-04-11T23:18:26.036Z,74.61
2018-04-11T23:20:27.957Z,75.27
2018-04-11T23:22:29.454Z,74.61
2018-04-11T23:24:31.080Z,75.34
2018-04-11T23:26:32.746Z,75.81
2018-04-11T23:28:35.048Z,75.62
2018-04-11T23:30:36.488Z,75.71
2018-04-11T23:32:37.924Z,75.43
2018-04-11T23:34:39.602Z,75.05
2018-04-11T23:36:41.211Z,75.71
2018-04-11T23:38:42.889Z,75.14
2018-04-11T23:40:45.080Z,74.95
2018-04-11T23:42:46.522Z,75.52
2018-04-11T23:44:48.514Z,75.34
2018-04-11T23:46:50.197Z,75.62
2018-04-11T23:48:51.677Z,75.34
2018-04-11T23:50:53.274Z,74.66
2018-04-11T23:52:54.773Z,75.14
2018-04-11T23:54:56.242Z,75.05
2018-04-11T23:56:58.435Z,74.57
2018-04-11T23:58:59.949Z,74.76
